sensor_id;sensor_type;location;lat;lon;timestamp;P1;durP1;ratioP1;P2;durP2;ratioP2
19191;SDS011;9728;48.194;16.346;2022-08-30T00:03:00;3.10;;;1.90;;
19191;SDS011;9728;48.194;16.346;2022-08-30T00:08:05;2.85;;;2.15;;
19191;SDS011;9728;48.194;16.346;2022-08-30T00:13:09;2.80;;;2.47;;
19191;SDS011;9728;48.194;16.346;2022-08-30T00:18:14;3.15;;;2.13;;
19191;SDS011;9728;48.194;16.346;2022-08-30T00:23:18;2.80;;;2.05;;
19191;SDS011;9728;48.194;16.346;2022-08-30T00:28:23;3.05;;;2.08;;
19191;SDS011;9728;48.194;16.346;2022-08-30T00:33:27;2.53;;;2.30;;
19191;SDS011;9728;48.194;16.346;2022-08-30T00:38:31;2.85;;;2.00;;
19191;SDS011;9728;48.194;16.346;2022-08-30T00:43:36;3.25;;;2.10;;
19191;SDS011;9728;48.194;16.346;2022-08-30T00:48:40;3.03;;;2.00;;
19191;SDS011;9728;48.194;16.346;2022-08-30T00:53:47;2.20;;;2.00;;
19191;SDS011;9728;48.194;16.346;2022-08-30T00:58:56;2.78;;;2.20;;
19191;SDS011;9728;48.194;16.346;2022-08-30T01:04:02;2.60;;;2.33;;
19191;SDS011;9728;48.194;16.346;2022-08-30T01:09:09;3.13;;;1.80;;
19191;SDS011;9728;48.194;16.346;2022-08-30T01:14:14;2.90;;;2.13;;
19191;SDS011;9728;48.194;16.346;2022-08-30T01:19:27;2.22;;;1.90;;
19191;SDS011;9728;48.194;16.346;2022-08-30T01:24:36;2.67;;;1.90;;
19191;SDS011;9728;48.194;16.346;2022-08-30T01:29:40;2.28;;;1.92;;
19191;SDS011;9728;48.194;16.346;2022-08-30T01:34:45;2.67;;;2.10;;
19191;SDS011;9728;48.194;16.346;2022-08-30T01:39:50;2.03;;;1.70;;
19191;SDS011;9728;48.194;16.346;2022-08-30T01:44:54;5.18;;;2.30;;
19191;SDS011;9728;48.194;16.346;2022-08-30T01:49:57;2.90;;;2.00;;
19191;SDS011;9728;48.194;16.346;2022-08-30T01:55:02;3.45;;;1.92;;
19191;SDS011;9728;48.194;16.346;2022-08-30T02:00:07;2.13;;;1.90;;
19191;SDS011;9728;48.194;16.346;2022-08-30T02:05:12;1.85;;;1.58;;
19191;SDS011;9728;48.194;16.346;2022-08-30T02:10:17;2.78;;;2.03;;
19191;SDS011;9728;48.194;16.346;2022-08-30T02:15:21;3.70;;;2.05;;
19191;SDS011;9728;48.194;16.346;2022-08-30T02:20:24;2.40;;;1.80;;
19191;SDS011;9728;48.194;16.346;2022-08-30T02:25:29;2.50;;;1.90;;
19191;SDS011;9728;48.194;16.346;2022-08-30T02:30:33;2.30;;;2.00;;
19191;SDS011;9728;48.194;16.346;2022-08-30T02:35:36;2.75;;;1.88;;
19191;SDS011;9728;48.194;16.346;2022-08-30T02:40:41;2.10;;;1.85;;
19191;SDS011;9728;48.194;16.346;2022-08-30T02:45:45;3.55;;;2.10;;
19191;SDS011;9728;48.194;16.346;2022-08-30T02:50:49;3.13;;;2.20;;
19191;SDS011;9728;48.194;16.346;2022-08-30T02:55:55;2.08;;;1.88;;
19191;SDS011;9728;48.194;16.346;2022-08-30T03:01:00;4.18;;;1.90;;
19191;SDS011;9728;48.194;16.346;2022-08-30T03:06:04;3.03;;;2.10;;
19191;SDS011;9728;48.194;16.346;2022-08-30T03:11:09;3.53;;;2.00;;
19191;SDS011;9728;48.194;16.346;2022-08-30T03:16:14;7.03;;;3.10;;
19191;SDS011;9728;48.194;16.346;2022-08-30T03:21:17;2.28;;;1.83;;
19191;SDS011;9728;48.194;16.346;2022-08-30T03:26:22;2.72;;;1.92;;
19191;SDS011;9728;48.194;16.346;2022-08-30T03:31:25;3.53;;;2.40;;
19191;SDS011;9728;48.194;16.346;2022-08-30T03:36:28;2.00;;;1.80;;
19191;SDS011;9728;48.194;16.346;2022-08-30T03:41:33;3.17;;;2.13;;
19191;SDS011;9728;48.194;16.346;2022-08-30T03:46:37;3.20;;;2.35;;
19191;SDS011;9728;48.194;16.346;2022-08-30T03:51:40;2.97;;;2.10;;
19191;SDS011;9728;48.194;16.346;2022-08-30T03:56:45;3.25;;;2.70;;
19191;SDS011;9728;48.194;16.346;2022-08-30T04:01:48;3.28;;;2.78;;
19191;SDS011;9728;48.194;16.346;2022-08-30T04:06:52;3.63;;;2.53;;
19191;SDS011;9728;48.194;16.346;2022-08-30T04:11:57;2.60;;;2.40;;
19191;SDS011;9728;48.194;16.346;2022-08-30T04:17:01;2.60;;;2.20;;
19191;SDS011;9728;48.194;16.346;2022-08-30T04:22:05;5.20;;;2.50;;
19191;SDS011;9728;48.194;16.346;2022-08-30T04:27:10;2.22;;;2.00;;
19191;SDS011;9728;48.194;16.346;2022-08-30T04:32:14;3.00;;;2.38;;
19191;SDS011;9728;48.194;16.346;2022-08-30T04:37:18;3.20;;;2.05;;
19191;SDS011;9728;48.194;16.346;2022-08-30T04:42:23;3.00;;;2.20;;
19191;SDS011;9728;48.194;16.346;2022-08-30T04:47:27;3.40;;;2.70;;
19191;SDS011;9728;48.194;16.346;2022-08-30T04:52:30;4.53;;;2.45;;
19191;SDS011;9728;48.194;16.346;2022-08-30T04:57:35;2.20;;;2.00;;
19191;SDS011;9728;48.194;16.346;2022-08-30T05:02:40;2.50;;;2.30;;
19191;SDS011;9728;48.194;16.346;2022-08-30T05:07:44;3.90;;;2.35;;
19191;SDS011;9728;48.194;16.346;2022-08-30T05:12:49;3.80;;;2.13;;
19191;SDS011;9728;48.194;16.346;2022-08-30T05:17:52;4.65;;;1.85;;
19191;SDS011;9728;48.194;16.346;2022-08-30T05:22:56;3.45;;;1.98;;
19191;SDS011;9728;48.194;16.346;2022-08-30T05:28:00;5.38;;;2.08;;
19191;SDS011;9728;48.194;16.346;2022-08-30T05:33:04;3.03;;;2.10;;
19191;SDS011;9728;48.194;16.346;2022-08-30T05:38:07;2.97;;;2.00;;
19191;SDS011;9728;48.194;16.346;2022-08-30T05:43:12;3.53;;;1.88;;
19191;SDS011;9728;48.194;16.346;2022-08-30T05:48:16;3.08;;;2.00;;
19191;SDS011;9728;48.194;16.346;2022-08-30T05:53:19;2.42;;;1.85;;
19191;SDS011;9728;48.194;16.346;2022-08-30T05:58:23;3.25;;;2.00;;
19191;SDS011;9728;48.194;16.346;2022-08-30T06:03:27;2.78;;;1.90;;
19191;SDS011;9728;48.194;16.346;2022-08-30T06:08:32;2.83;;;1.85;;
19191;SDS011;9728;48.194;16.346;2022-08-30T06:13:37;3.47;;;2.00;;
19191;SDS011;9728;48.194;16.346;2022-08-30T06:18:41;5.25;;;2.10;;
19191;SDS011;9728;48.194;16.346;2022-08-30T06:23:45;2.40;;;1.90;;
19191;SDS011;9728;48.194;16.346;2022-08-30T06:28:50;3.92;;;2.08;;
19191;SDS011;9728;48.194;16.346;2022-08-30T06:33:53;3.03;;;1.92;;
19191;SDS011;9728;48.194;16.346;2022-08-30T06:38:57;3.90;;;2.25;;
19191;SDS011;9728;48.194;16.346;2022-08-30T06:44:03;2.88;;;2.20;;
19191;SDS011;9728;48.194;16.346;2022-08-30T06:49:07;3.38;;;1.90;;
19191;SDS011;9728;48.194;16.346;2022-08-30T06:54:10;5.45;;;2.50;;
19191;SDS011;9728;48.194;16.346;2022-08-30T06:59:15;4.57;;;1.98;;
19191;SDS011;9728;48.194;16.346;2022-08-30T07:04:19;3.75;;;2.10;;
19191;SDS011;9728;48.194;16.346;2022-08-30T07:09:22;2.97;;;1.77;;
19191;SDS011;9728;48.194;16.346;2022-08-30T07:14:27;4.32;;;1.80;;
19191;SDS011;9728;48.194;16.346;2022-08-30T07:19:30;3.33;;;1.55;;
19191;SDS011;9728;48.194;16.346;2022-08-30T07:24:34;3.22;;;1.90;;
19191;SDS011;9728;48.194;16.346;2022-08-30T07:29:39;6.85;;;1.95;;
19191;SDS011;9728;48.194;16.346;2022-08-30T07:34:42;2.65;;;1.92;;
19191;SDS011;9728;48.194;16.346;2022-08-30T07:39:47;2.67;;;1.73;;
19191;SDS011;9728;48.194;16.346;2022-08-30T07:44:52;2.92;;;1.85;;
19191;SDS011;9728;48.194;16.346;2022-08-30T07:49:57;3.95;;;2.03;;
19191;SDS011;9728;48.194;16.346;2022-08-30T07:55:01;2.03;;;1.73;;
19191;SDS011;9728;48.194;16.346;2022-08-30T08:00:08;2.40;;;1.70;;
19191;SDS011;9728;48.194;16.346;2022-08-30T08:05:12;4.03;;;2.03;;
19191;SDS011;9728;48.194;16.346;2022-08-30T08:10:19;2.92;;;1.60;;
19191;SDS011;9728;48.194;16.346;2022-08-30T08:15:24;4.35;;;1.80;;
19191;SDS011;9728;48.194;16.346;2022-08-30T08:20:28;4.47;;;1.92;;
19191;SDS011;9728;48.194;16.346;2022-08-30T08:25:31;2.28;;;1.70;;
19191;SDS011;9728;48.194;16.346;2022-08-30T08:30:37;2.47;;;1.90;;
19191;SDS011;9728;48.194;16.346;2022-08-30T08:35:43;3.45;;;1.55;;
19191;SDS011;9728;48.194;16.346;2022-08-30T08:40:50;2.47;;;1.55;;
19191;SDS011;9728;48.194;16.346;2022-08-30T08:46:03;3.60;;;1.40;;
19191;SDS011;9728;48.194;16.346;2022-08-30T08:51:12;1.60;;;1.35;;
19191;SDS011;9728;48.194;16.346;2022-08-30T08:56:35;1.70;;;1.55;;
19191;SDS011;9728;48.194;16.346;2022-08-30T09:01:40;2.90;;;1.40;;
19191;SDS011;9728;48.194;16.346;2022-08-30T09:06:46;1.88;;;1.25;;
19191;SDS011;9728;48.194;16.346;2022-08-30T09:11:53;3.08;;;1.73;;
19191;SDS011;9728;48.194;16.346;2022-08-30T09:16:59;3.40;;;1.48;;
19191;SDS011;9728;48.194;16.346;2022-08-30T09:22:11;2.08;;;1.23;;
19191;SDS011;9728;48.194;16.346;2022-08-30T09:27:28;3.95;;;1.60;;
19191;SDS011;9728;48.194;16.346;2022-08-30T09:32:38;1.90;;;1.40;;
19191;SDS011;9728;48.194;16.346;2022-08-30T09:37:44;1.98;;;1.30;;
19191;SDS011;9728;48.194;16.346;2022-08-30T09:43:06;1.63;;;1.40;;
19191;SDS011;9728;48.194;16.346;2022-08-30T09:48:26;1.92;;;1.20;;
19191;SDS011;9728;48.194;16.346;2022-08-30T09:53:33;4.30;;;1.55;;
19191;SDS011;9728;48.194;16.346;2022-08-30T09:58:51;3.00;;;1.55;;
19191;SDS011;9728;48.194;16.346;2022-08-30T10:04:06;2.72;;;1.30;;
19191;SDS011;9728;48.194;16.346;2022-08-30T10:09:19;2.88;;;1.67;;
19191;SDS011;9728;48.194;16.346;2022-08-30T10:14:39;3.47;;;1.70;;
19191;SDS011;9728;48.194;16.346;2022-08-30T10:19:59;2.70;;;1.40;;
19191;SDS011;9728;48.194;16.346;2022-08-30T10:25:10;2.05;;;1.35;;
19191;SDS011;9728;48.194;16.346;2022-08-30T10:30:17;3.05;;;1.70;;
19191;SDS011;9728;48.194;16.346;2022-08-30T10:35:25;2.83;;;1.70;;
19191;SDS011;9728;48.194;16.346;2022-08-30T10:40:41;2.25;;;1.40;;
19191;SDS011;9728;48.194;16.346;2022-08-30T10:46:08;2.30;;;1.30;;
19191;SDS011;9728;48.194;16.346;2022-08-30T10:51:19;3.85;;;1.40;;
19191;SDS011;9728;48.194;16.346;2022-08-30T10:56:30;1.73;;;1.30;;
19191;SDS011;9728;48.194;16.346;2022-08-30T11:01:39;3.42;;;1.60;;
19191;SDS011;9728;48.194;16.346;2022-08-30T11:07:00;1.75;;;1.38;;
19191;SDS011;9728;48.194;16.346;2022-08-30T11:12:21;2.22;;;1.40;;
19191;SDS011;9728;48.194;16.346;2022-08-30T11:17:34;2.63;;;1.40;;
19191;SDS011;9728;48.194;16.346;2022-08-30T11:23:06;1.88;;;1.38;;
19191;SDS011;9728;48.194;16.346;2022-08-30T11:33:58;2.20;;;1.15;;
19191;SDS011;9728;48.194;16.346;2022-08-30T11:39:05;2.97;;;1.45;;
19191;SDS011;9728;48.194;16.346;2022-08-30T11:49:47;1.30;;;1.15;;
19191;SDS011;9728;48.194;16.346;2022-08-30T11:55:10;2.00;;;1.42;;
19191;SDS011;9728;48.194;16.346;2022-08-30T12:00:46;1.40;;;1.15;;
19191;SDS011;9728;48.194;16.346;2022-08-30T12:06:44;2.17;;;1.20;;
19191;SDS011;9728;48.194;16.346;2022-08-30T12:11:53;3.47;;;1.27;;
19191;SDS011;9728;48.194;16.346;2022-08-30T12:17:00;2.45;;;1.48;;
19191;SDS011;9728;48.194;16.346;2022-08-30T12:22:26;1.73;;;1.20;;
19191;SDS011;9728;48.194;16.346;2022-08-30T12:27:32;2.25;;;1.60;;
19191;SDS011;9728;48.194;16.346;2022-08-30T12:32:41;1.98;;;1.23;;
19191;SDS011;9728;48.194;16.346;2022-08-30T12:37:55;3.50;;;1.80;;
19191;SDS011;9728;48.194;16.346;2022-08-30T12:43:02;1.27;;;1.15;;
19191;SDS011;9728;48.194;16.346;2022-08-30T12:48:09;1.73;;;1.23;;
19191;SDS011;9728;48.194;16.346;2022-08-30T12:53:15;3.20;;;1.83;;
19191;SDS011;9728;48.194;16.346;2022-08-30T12:58:34;1.75;;;1.50;;
19191;SDS011;9728;48.194;16.346;2022-08-30T13:03:40;1.70;;;1.38;;
19191;SDS011;9728;48.194;16.346;2022-08-30T13:08:47;3.33;;;1.50;;
19191;SDS011;9728;48.194;16.346;2022-08-30T13:13:55;1.70;;;1.40;;
19191;SDS011;9728;48.194;16.346;2022-08-30T13:19:25;2.33;;;1.40;;
19191;SDS011;9728;48.194;16.346;2022-08-30T13:24:33;1.58;;;1.40;;
19191;SDS011;9728;48.194;16.346;2022-08-30T13:29:38;1.50;;;1.30;;
19191;SDS011;9728;48.194;16.346;2022-08-30T13:34:42;2.28;;;1.23;;
19191;SDS011;9728;48.194;16.346;2022-08-30T13:39:46;1.63;;;1.33;;
19191;SDS011;9728;48.194;16.346;2022-08-30T13:44:52;2.22;;;1.50;;
19191;SDS011;9728;48.194;16.346;2022-08-30T13:49:55;2.65;;;1.52;;
19191;SDS011;9728;48.194;16.346;2022-08-30T13:54:59;2.05;;;1.38;;
19191;SDS011;9728;48.194;16.346;2022-08-30T14:00:06;1.40;;;1.30;;
19191;SDS011;9728;48.194;16.346;2022-08-30T14:05:16;2.80;;;1.42;;
19191;SDS011;9728;48.194;16.346;2022-08-30T14:10:40;1.73;;;1.20;;
19191;SDS011;9728;48.194;16.346;2022-08-30T14:15:50;1.40;;;1.25;;
19191;SDS011;9728;48.194;16.346;2022-08-30T14:21:13;2.03;;;1.80;;
19191;SDS011;9728;48.194;16.346;2022-08-30T14:26:19;1.50;;;1.35;;
19191;SDS011;9728;48.194;16.346;2022-08-30T14:31:28;2.13;;;1.25;;
19191;SDS011;9728;48.194;16.346;2022-08-30T14:36:34;2.35;;;1.33;;
19191;SDS011;9728;48.194;16.346;2022-08-30T14:41:41;1.65;;;1.30;;
19191;SDS011;9728;48.194;16.346;2022-08-30T14:46:46;1.90;;;1.30;;
19191;SDS011;9728;48.194;16.346;2022-08-30T14:51:51;2.70;;;1.67;;
19191;SDS011;9728;48.194;16.346;2022-08-30T14:56:55;1.70;;;1.35;;
19191;SDS011;9728;48.194;16.346;2022-08-30T15:02:01;2.75;;;1.45;;
19191;SDS011;9728;48.194;16.346;2022-08-30T15:07:04;1.70;;;1.40;;
19191;SDS011;9728;48.194;16.346;2022-08-30T15:12:13;1.98;;;1.20;;
19191;SDS011;9728;48.194;16.346;2022-08-30T15:17:18;2.63;;;1.70;;
19191;SDS011;9728;48.194;16.346;2022-08-30T15:22:22;3.08;;;1.80;;
19191;SDS011;9728;48.194;16.346;2022-08-30T15:27:25;3.22;;;1.70;;
19191;SDS011;9728;48.194;16.346;2022-08-30T15:32:31;2.28;;;1.63;;
19191;SDS011;9728;48.194;16.346;2022-08-30T15:37:34;2.92;;;1.65;;
19191;SDS011;9728;48.194;16.346;2022-08-30T15:42:38;3.10;;;2.10;;
19191;SDS011;9728;48.194;16.346;2022-08-30T15:47:44;2.45;;;1.48;;
19191;SDS011;9728;48.194;16.346;2022-08-30T15:52:49;1.40;;;1.23;;
19191;SDS011;9728;48.194;16.346;2022-08-30T15:57:52;1.52;;;1.30;;
19191;SDS011;9728;48.194;16.346;2022-08-30T16:02:56;1.52;;;1.27;;
19191;SDS011;9728;48.194;16.346;2022-08-30T16:08:00;1.80;;;1.15;;
19191;SDS011;9728;48.194;16.346;2022-08-30T16:13:04;2.97;;;1.25;;
19191;SDS011;9728;48.194;16.346;2022-08-30T16:18:08;2.53;;;1.95;;
19191;SDS011;9728;48.194;16.346;2022-08-30T16:23:13;2.03;;;1.45;;
19191;SDS011;9728;48.194;16.346;2022-08-30T16:28:17;2.15;;;1.70;;
19191;SDS011;9728;48.194;16.346;2022-08-30T16:33:23;1.45;;;1.30;;
19191;SDS011;9728;48.194;16.346;2022-08-30T16:38:26;1.70;;;1.55;;
19191;SDS011;9728;48.194;16.346;2022-08-30T16:43:30;1.70;;;1.50;;
19191;SDS011;9728;48.194;16.346;2022-08-30T16:48:35;2.53;;;1.60;;
19191;SDS011;9728;48.194;16.346;2022-08-30T16:53:41;3.00;;;1.80;;
19191;SDS011;9728;48.194;16.346;2022-08-30T16:58:46;4.93;;;1.67;;
19191;SDS011;9728;48.194;16.346;2022-08-30T17:03:55;4.15;;;2.05;;
19191;SDS011;9728;48.194;16.346;2022-08-30T17:08:59;2.90;;;2.20;;
19191;SDS011;9728;48.194;16.346;2022-08-30T17:14:02;3.35;;;1.83;;
19191;SDS011;9728;48.194;16.346;2022-08-30T17:19:09;2.80;;;1.52;;
19191;SDS011;9728;48.194;16.346;2022-08-30T17:24:13;4.05;;;2.17;;
19191;SDS011;9728;48.194;16.346;2022-08-30T17:29:17;2.10;;;1.40;;
19191;SDS011;9728;48.194;16.346;2022-08-30T17:34:24;2.72;;;1.67;;
19191;SDS011;9728;48.194;16.346;2022-08-30T17:39:29;2.65;;;1.67;;
19191;SDS011;9728;48.194;16.346;2022-08-30T17:44:32;3.10;;;1.80;;
19191;SDS011;9728;48.194;16.346;2022-08-30T17:49:44;2.47;;;1.73;;
19191;SDS011;9728;48.194;16.346;2022-08-30T17:54:48;4.10;;;1.70;;
19191;SDS011;9728;48.194;16.346;2022-08-30T17:59:53;3.47;;;1.55;;
19191;SDS011;9728;48.194;16.346;2022-08-30T18:04:59;2.67;;;1.85;;
19191;SDS011;9728;48.194;16.346;2022-08-30T18:10:03;2.50;;;1.60;;
19191;SDS011;9728;48.194;16.346;2022-08-30T18:15:07;2.40;;;1.70;;
19191;SDS011;9728;48.194;16.346;2022-08-30T18:20:14;2.83;;;2.05;;
19191;SDS011;9728;48.194;16.346;2022-08-30T18:25:17;2.92;;;1.90;;
19191;SDS011;9728;48.194;16.346;2022-08-30T18:30:21;2.72;;;2.03;;
19191;SDS011;9728;48.194;16.346;2022-08-30T18:35:26;2.80;;;1.88;;
19191;SDS011;9728;48.194;16.346;2022-08-30T18:40:29;2.75;;;1.83;;
19191;SDS011;9728;48.194;16.346;2022-08-30T18:45:35;4.97;;;1.98;;
19191;SDS011;9728;48.194;16.346;2022-08-30T18:50:40;3.30;;;1.95;;
19191;SDS011;9728;48.194;16.346;2022-08-30T18:55:44;2.67;;;1.77;;
19191;SDS011;9728;48.194;16.346;2022-08-30T19:00:48;4.25;;;1.95;;
19191;SDS011;9728;48.194;16.346;2022-08-30T19:05:55;2.67;;;1.80;;
19191;SDS011;9728;48.194;16.346;2022-08-30T19:10:59;3.88;;;1.80;;
19191;SDS011;9728;48.194;16.346;2022-08-30T19:16:05;2.95;;;1.75;;
19191;SDS011;9728;48.194;16.346;2022-08-30T19:21:15;4.07;;;2.08;;
19191;SDS011;9728;48.194;16.346;2022-08-30T19:26:21;2.20;;;1.85;;
19191;SDS011;9728;48.194;16.346;2022-08-30T19:31:28;3.00;;;2.03;;
19191;SDS011;9728;48.194;16.346;2022-08-30T19:36:33;5.47;;;1.83;;
19191;SDS011;9728;48.194;16.346;2022-08-30T19:41:37;3.42;;;1.90;;
19191;SDS011;9728;48.194;16.346;2022-08-30T19:46:40;2.10;;;1.58;;
19191;SDS011;9728;48.194;16.346;2022-08-30T19:51:45;3.60;;;2.35;;
19191;SDS011;9728;48.194;16.346;2022-08-30T19:56:49;4.03;;;3.00;;
19191;SDS011;9728;48.194;16.346;2022-08-30T20:01:52;2.78;;;2.20;;
19191;SDS011;9728;48.194;16.346;2022-08-30T20:06:57;3.65;;;2.08;;
19191;SDS011;9728;48.194;16.346;2022-08-30T20:12:01;2.67;;;2.10;;
19191;SDS011;9728;48.194;16.346;2022-08-30T20:17:05;6.53;;;2.38;;
19191;SDS011;9728;48.194;16.346;2022-08-30T20:22:13;3.80;;;2.13;;
19191;SDS011;9728;48.194;16.346;2022-08-30T20:27:17;4.80;;;2.80;;
19191;SDS011;9728;48.194;16.346;2022-08-30T20:32:20;3.13;;;2.10;;
19191;SDS011;9728;48.194;16.346;2022-08-30T20:37:26;3.97;;;2.65;;
19191;SDS011;9728;48.194;16.346;2022-08-30T20:42:30;3.78;;;2.20;;
19191;SDS011;9728;48.194;16.346;2022-08-30T20:47:33;3.55;;;2.40;;
19191;SDS011;9728;48.194;16.346;2022-08-30T20:52:40;3.40;;;2.05;;
19191;SDS011;9728;48.194;16.346;2022-08-30T20:57:44;3.30;;;2.38;;
19191;SDS011;9728;48.194;16.346;2022-08-30T21:02:47;4.63;;;2.58;;
19191;SDS011;9728;48.194;16.346;2022-08-30T21:07:53;3.92;;;2.45;;
19191;SDS011;9728;48.194;16.346;2022-08-30T21:12:56;2.72;;;2.10;;
19191;SDS011;9728;48.194;16.346;2022-08-30T21:18:00;3.53;;;2.55;;
19191;SDS011;9728;48.194;16.346;2022-08-30T21:23:04;3.80;;;2.40;;
19191;SDS011;9728;48.194;16.346;2022-08-30T21:28:08;2.55;;;1.88;;
19191;SDS011;9728;48.194;16.346;2022-08-30T21:33:11;2.80;;;2.17;;
19191;SDS011;9728;48.194;16.346;2022-08-30T21:38:16;3.90;;;2.40;;
19191;SDS011;9728;48.194;16.346;2022-08-30T21:43:21;3.80;;;2.78;;
19191;SDS011;9728;48.194;16.346;2022-08-30T21:48:24;2.72;;;2.30;;
19191;SDS011;9728;48.194;16.346;2022-08-30T21:53:29;4.20;;;2.60;;
19191;SDS011;9728;48.194;16.346;2022-08-30T21:58:32;3.28;;;2.20;;
19191;SDS011;9728;48.194;16.346;2022-08-30T22:03:36;2.28;;;1.90;;
19191;SDS011;9728;48.194;16.346;2022-08-30T22:08:42;2.80;;;1.80;;
19191;SDS011;9728;48.194;16.346;2022-08-30T22:13:50;3.55;;;2.20;;
19191;SDS011;9728;48.194;16.346;2022-08-30T22:18:54;3.15;;;1.80;;
19191;SDS011;9728;48.194;16.346;2022-08-30T22:23:59;3.67;;;2.00;;
19191;SDS011;9728;48.194;16.346;2022-08-30T22:29:04;3.85;;;1.70;;
19191;SDS011;9728;48.194;16.346;2022-08-30T22:34:09;2.05;;;1.52;;
19191;SDS011;9728;48.194;16.346;2022-08-30T22:39:13;2.03;;;1.60;;
19191;SDS011;9728;48.194;16.346;2022-08-30T22:44:16;2.38;;;1.80;;
19191;SDS011;9728;48.194;16.346;2022-08-30T22:49:20;2.80;;;2.10;;
19191;SDS011;9728;48.194;16.346;2022-08-30T22:54:24;2.05;;;1.67;;
19191;SDS011;9728;48.194;16.346;2022-08-30T22:59:28;2.42;;;1.90;;
19191;SDS011;9728;48.194;16.346;2022-08-30T23:04:34;2.00;;;1.50;;
19191;SDS011;9728;48.194;16.346;2022-08-30T23:09:39;1.88;;;1.63;;
19191;SDS011;9728;48.194;16.346;2022-08-30T23:14:43;2.88;;;2.15;;
19191;SDS011;9728;48.194;16.346;2022-08-30T23:19:46;3.30;;;1.90;;
19191;SDS011;9728;48.194;16.346;2022-08-30T23:24:51;2.47;;;1.85;;
19191;SDS011;9728;48.194;16.346;2022-08-30T23:30:16;2.35;;;1.70;;
19191;SDS011;9728;48.194;16.346;2022-08-30T23:35:37;2.10;;;1.85;;
19191;SDS011;9728;48.194;16.346;2022-08-30T23:40:59;2.88;;;1.95;;
19191;SDS011;9728;48.194;16.346;2022-08-30T23:46:20;1.83;;;1.60;;
19191;SDS011;9728;48.194;16.346;2022-08-30T23:51:41;3.05;;;2.30;;
19191;SDS011;9728;48.194;16.346;2022-08-30T23:57:03;3.55;;;1.92;;
